Tiempo atmosférico en la estación meteorológica de Teguise, Las Palmas (19 m.)



Fecha
DESCASC
Temp. máxima en grados centígrados (hora)
DESCASC
Temp. mínima en grados centígrados (hora)
DESCASC
Temp. media en grados centígrados
DESCASC
Racha de viento máxima en m/sg (hora)
DESCASC
Velocidad máxima media en intervalos de 10 minutos(hora)
DESCASC
Precipitaciones diarias en mm
DESCASC
Precipitaciones de 00:00 a 06:00 en mm
DESCASC
Precipitaciones de 06:00 a 12:00 en mm
DESCASC
Precipitaciones de 12:00 a 18:00 en mm
DESCASC
Precipitaciones de 18:00 a 24:00 en mm
DESCASC
05-12-2019 19.6 (12:30) 15.1 (14:00) 17.4 14.72 (13:50) 10.28 (03:30) 3.6 2.2 0 1.2 0.2
04-12-2019 21.7 (12:30) 15.7 (04:30) 18.7 10.28 (23:50) 6.94 (23:50) 7.2 0 0 0 7.2
03-12-2019 21.9 (14:30) 17.1 (00:00) 19.5 -- (--) -- (--) 0 0 0 0 0
02-12-2019 21.6 (15:00) 17.3 (00:00) 19.4 -- (--) -- (--) 0.4 0 0 0.4 0
01-12-2019 22.6 (11:20) 17.7 (00:00) 20.2 -- (--) -- (--) 0 0 0 0 0
30-11-2019 23.1 (12:50) 18.8 (00:00) 20.9 -- (--) -- (--) 0 0 0 0 0
29-11-2019 28.1 (12:40) 18.9 (00:00) 23.5 -- (--) -- (--) 0 0 0 0 0
28-11-2019 23 (12:50) 17.9 (00:00) 20.4 -- (--) -- (--) 0 0 0 0 0
27-11-2019 22.5 (12:50) 18.1 (00:00) 20.3 -- (--) -- (--) 1.1 0 1.1 0 0
26-11-2019 22.5 (12:30) 18 (00:00) 20.3 12.5 (01:20) 9.44 (01:50) 0 0 0 0 0
25-11-2019 22 (13:30) 18.2 (00:00) 20.1 10.56 (09:40) 8.06 (22:30) 0 0 0 0 0
24-11-2019 22.6 (13:40) 17.3 (00:00) 19.9 -- (--) -- (--) 0 0 0 0 0
23-11-2019 22.7 (14:30) 18.7 (00:00) 20.7 -- (--) -- (--) 0.8 0 0.6 0.2 0
22-11-2019 23.2 (14:20) 18.5 (00:00) 20.9 8.89 (01:50) 6.11 (03:20) 0.6 0.4 0.2 0 0
21-11-2019 22.9 (14:00) 16.4 (00:00) 19.6 10.28 (14:10) 6.39 (15:10) 0 0 0 0 0
20-11-2019 23.2 (14:10) 15.2 (00:00) 19.2 -- (--) -- (--) 0.6 0 0 0 0.6
19-11-2019 22 (14:50) 15 (00:00) 18.5 -- (--) -- (--) 1.6 0.2 1.4 0 0
18-11-2019 22.8 (13:10) 16.1 (00:00) 19.4 -- (--) -- (--) 0 0 0 0 0
17-11-2019 21.2 (13:30) 16.5 (00:00) 18.9 12.78 (04:20) 9.72 (00:30) 0 0 0 0 0
16-11-2019 21 (13:10) 15.5 (00:00) 18.3 15.83 (14:50) 11.11 (13:10) 0.4 0 0.2 0 0.2
15-11-2019 22.1 (11:20) 16.6 (00:00) 19.4 -- (--) -- (--) 0.2 0 0 0.2 0
14-11-2019 23.2 (14:40) 18.7 (00:00) 21 -- (--) -- (--) 0 0 0 0 0
13-11-2019 23.2 (11:20) 18.6 (00:00) 20.9 -- (--) -- (--) 0 0 0 0 0
12-11-2019 23.8 (12:50) 18.9 (00:00) 21.3 -- (--) -- (--) 0 0 0 0 0
11-11-2019 23.2 (11:50) 19.3 (00:40) 21.3 -- (--) -- (--) 0 0 0 0 0
10-11-2019 23.8 (13:20) 18.6 (00:00) 21.2 -- (--) -- (--) 0 0 0 0 0
09-11-2019 22.9 (13:10) 18.2 (00:00) 20.6 -- (--) -- (--) 0 0 0 0 0
08-11-2019 23.4 (10:50) 19.4 (00:00) 21.4 -- (--) -- (--) 0 0 0 0 0
07-11-2019 23.8 (12:50) 19.4 (00:00) 21.6 14.17 (13:20) 11.39 (14:40) 0 0 0 0 0
06-11-2019 23.7 (11:50) 19.3 (00:00) 21.5 -- (--) -- (--) 0 0 0 0 0

Gráficas

Temp. máximas Temp. mínimas Temp. medias Precipitaciones Rachas de viento máximas Velocidades máximas media en intervalos de 10 minutos

Datos horarios

Fecha y hora oficial Temperatura (ºC) Velocidad del viento (km/h) Dirección del viento Racha (km/h) Dirección de racha Precipitación (mm) Presión (hPa) Tendencia (hPa) Humedad (%)
2019-12-05 23:00:00 16.9 26 Norte 43 Norte 0 1010.1 0.8 81
2019-12-05 22:00:00 16.8 26 Norte 42 Norte 0 1009.7 1.1 83
2019-12-05 21:00:00 16.2 26 Norte 47 Norte 0.2 1009.7 1.4 88
2019-12-05 20:00:00 17.6 34 Norte 52 Norte 0 1009.3 1.2 70
2019-12-05 19:00:00 17.4 28 Noroeste 44 Norte 0 1008.6 0.5 72
2019-12-05 18:00:00 17.3 26 Noroeste 40 Noroeste 0 1008.3 0.1 73
2019-12-05 17:00:00 17 27 Norte 42 Norte 0.2 1008.1 -0.1 81
2019-12-05 16:00:00 18.4 24 Norte 43 Norte 0 1008.1 -0.7 69
2019-12-05 15:00:00 17.7 33 Norte 49 Norte 0.2 1008.2 -1.2 71
2019-12-05 14:00:00 16 20 Norte 53 Norte 0.8 1008.2 -1.7 96
2019-12-05 13:00:00 18.9 24 Noroeste -- -- 0 1008.8 -1 63
2019-12-05 12:00:00 19.4 24 Noroeste 37 Noroeste 0 1009.4 -0.1 64
2019-12-05 11:00:00 19.1 24 Noroeste 38 Noroeste 0 1009.9 0.8 66
2019-12-05 10:00:00 18.6 23 Noroeste 37 Noroeste 0 1009.8 1 66
2019-12-05 09:00:00 17.1 19 Noroeste 40 Noroeste 0 1009.5 1 71
2019-12-05 08:00:00 16.9 27 Noroeste 46 Noroeste 0 1009.1 0.4 69
2019-12-05 07:00:00 16.7 30 Noroeste 44 Noroeste 0 1008.8 -0.3 69
2019-12-05 06:00:00 16.4 24 Noroeste 48 Noroeste 0 1008.5 -1 75
2019-12-05 05:00:00 17 28 Noroeste 44 Noroeste 0 1008.7 -1.3 71
2019-12-05 04:00:00 16.9 25 Noroeste 52 Noroeste 0 1009.1 -1.7 70
2019-12-05 03:00:00 17 28 Noroeste 44 Noroeste 0 1009.5 -1.8 67
2019-12-05 02:00:00 16.5 26 Norte 41 Norte 0.6 1010 -1.5 73
2019-12-05 01:00:00 15.7 24 Norte 47 Oeste 1.6 1010.8 -1.2 89
2019-12-05 00:00:00 16.7 22 Oeste 37 Oeste 7.2 1011.3 -1.1 99
2019-12-04 23:00:00 18.5 18 Oeste 27 Oeste 0 1011.5 -1.8 79
2019-12-04 22:00:00 18.6 13 Oeste 20 Oeste 0 1012 -1.2 74
2019-12-04 21:00:00 18.1 13 Oeste 23 Oeste 0 1012.4 -0.6 72
2019-12-04 20:00:00 18.9 16 Noroeste 29 Noroeste 0 1013.3 -0.1 73
2019-12-04 19:00:00 18.6 21 Noroeste 33 Noroeste 0 1013.2 -0.5 65
2019-12-04 18:00:00 18.7 14 Noroeste 31 Noroeste 0 1013 -0.8 63
2019-12-04 17:00:00 20 17 Noroeste 31 Noroeste 0 1013.4 -0.8 66
2019-12-04 16:00:00 20.3 18 Noroeste 33 Oeste 0 1013.7 -0.9 60
2019-12-04 15:00:00 20.1 17 Noroeste 25 Oeste 0 1013.8 -2.1 65
2019-12-04 14:00:00 20.3 20 Noroeste 30 Oeste 0 1014.2 -2.8 62
2019-12-04 13:00:00 20.8 19 Oeste 25 Oeste 0 1014.6 -2.4 58
2019-12-04 12:00:00 21.4 14 Noroeste 23 Oeste 0 1015.9 -0.5 51
2019-12-04 11:00:00 19.9 13 Noroeste -- -- 0 1017 1.2 61
2019-12-04 10:00:00 19.7 15 Noroeste 23 Noroeste 0 1017 1.4 61
2019-12-04 09:00:00 18.8 10 Noroeste 17 Noroeste 0 1016.4 1.2 69
2019-12-04 08:00:00 17.4 10 Noroeste 15 Oeste 0 1015.8 0.9 69
2019-12-04 07:00:00 17.1 9 Noroeste 19 Noroeste 0 1015.6 0.2 71
2019-12-04 06:00:00 16 10 Norte 15 Noroeste 0 1015.2 -0.3 74
2019-12-04 05:00:00 16 10 Norte 15 Noroeste 0 1014.9 -0.6 74
2019-12-04 04:00:00 16.3 10 Norte 23 Norte 0 1015.4 -0.3 78
2019-12-04 03:00:00 16.9 12 Norte 24 Norte 0 1015.5 -0.9 78
2019-12-04 02:00:00 16.9 12 Norte 28 Norte 0 1015.5 -1.1 74
2019-12-04 01:00:00 17.6 14 Norte 22 Norte 0 1015.7 -0.5 72
2019-12-04 00:00:00 18 11 Norte 19 Norte 0 1016.4 0.7 70
2019-12-03 23:00:00 17.4 11 Norte 21 Norte 0 1016.6 1.2 71
2019-12-03 22:00:00 17.3 12 Norte 23 Norte 0 1016.2 1.5 72
2019-12-03 21:00:00 17.7 13 Norte 24 Noroeste 0 1015.7 1.5 71
2019-12-03 20:00:00 17.7 15 Norte 26 Norte 0 1015.4 1.6 70
2019-12-03 19:00:00 17.8 13 Norte -- -- 0 1014.7 1.1 70
2019-12-03 18:00:00 18.6 -- -- -- -- 0 1014.2 0.8 65
2019-12-03 17:00:00 19.8 -- -- -- -- 0 1013.8 0.8 62
2019-12-03 16:00:00 20.1 -- -- -- -- 0 1013.6 0.2 61
2019-12-03 15:00:00 18.9 -- -- -- -- 0 1013.4 -0.4 62
2019-12-03 14:00:00 21.4 -- -- -- -- 0 1013 -0.8 55
2019-12-03 13:00:00 21.5 -- -- -- -- 0 1013.4 -0.3 51
2019-12-03 12:00:00 21.1 32 Norte 45 Norte 0 1013.8 1 51
2019-12-03 11:00:00 20.6 27 Noroeste -- -- 0 1013.8 1.5 56
2019-12-03 10:00:00 19.4 -- -- -- -- 0 1013.7 2 63
2019-12-03 09:00:00 18.8 -- -- -- -- 0 1012.8 1.7 57
2019-12-03 08:00:00 17.9 -- -- -- -- 0 1012.3 1.6 59
2019-12-03 07:00:00 17.7 -- -- -- -- 0 1011.7 1 58
2019-12-03 06:00:00 17.7 -- -- -- -- 0 1011.1 0.4 61
2019-12-03 05:00:00 17.7 -- -- -- -- 0 1010.7 -0.3 66
2019-12-03 04:00:00 17.9 -- -- -- -- 0 1010.7 -0.6 62
2019-12-03 03:00:00 18.3 -- -- -- -- 0 1010.7 -1 59
2019-12-03 02:00:00 18.1 -- -- -- -- 0 1011 -1.2 62
2019-12-03 01:00:00 18 -- -- -- -- 0 1011.3 -0.9 63
2019-12-03 00:00:00 17.8 -- -- -- -- 0 1011.7 -0.7 66
2019-12-02 23:00:00 18.5 -- -- -- -- 0 1012.2 -0.1 62
2019-12-02 22:00:00 17.8 19 Noroeste 42 Noroeste 0 1012.2 0.3 65
2019-12-02 21:00:00 18.4 27 Noroeste 42 Noroeste 0 1012.4 0.9 63
2019-12-02 20:00:00 17.7 25 Norte 39 Norte 0 1012.3 0.8 71
2019-12-02 19:00:00 18.5 23 Noroeste 37 Noroeste 0 1011.9 0.3 62
2019-12-02 18:00:00 18.8 24 Noroeste 43 Noroeste 0 1011.5 -0.1 65
2019-12-02 17:00:00 19.6 21 Noroeste 34 Noroeste 0 1011.5 -0.9 62
2019-12-02 16:00:00 19.2 20 Noroeste 36 Noroeste 0.4 1011.6 -1.4 65
2019-12-02 15:00:00 21 19 Noroeste 34 Noroeste 0 1011.6 -2.4 56
2019-12-02 14:00:00 21.3 18 Noroeste 35 Norte 0 1012.4 -2.5 56
2019-12-02 13:00:00 19.9 12 Noroeste 37 Norte 0 1013 -2.3 74
2019-12-02 12:00:00 19.9 23 Noroeste 32 Norte 0 1014 -0.9 67
2019-12-02 11:00:00 19.5 18 Noroeste 38 Noroeste 0 1014.9 0.2 71
2019-12-02 10:00:00 17.8 23 Noroeste 42 Noroeste 0 1015.3 0.7 83
2019-12-02 09:00:00 19.3 23 Noroeste 34 Norte 0 1014.9 0.5 67
2019-12-02 08:00:00 18.7 23 Noroeste 33 Noroeste 0 1014.7 0 63
2019-12-02 07:00:00 18.6 24 Noroeste 34 Norte 0 1014.6 -0.7 59
2019-12-02 06:00:00 18.4 21 Noroeste 35 Noroeste 0 1014.4 -1.4 72
2019-12-02 05:00:00 18.6 22 Noroeste 32 Noroeste 0 1014.7 -1.3 65
2019-12-02 04:00:00 18.1 19 Noroeste 28 Noroeste 0 1015.3 -1 70
2019-12-02 03:00:00 18.4 13 Norte 28 Norte 0 1015.8 -1.1 73
2019-12-02 02:00:00 18.4 18 Norte 32 Norte 0 1016 -1.3 74
2019-12-02 01:00:00 18.7 17 Norte 33 Norte 0 1016.3 -1.1 76
2019-12-02 00:00:00 18 12 Norte 22 Norte 0 1016.9 -0.7 78
2019-12-01 23:00:00 19.2 14 Norte 26 Norte 0 1017.3 -0.2 76
2019-12-01 22:00:00 19.2 17 Norte 27 Norte 0 1017.4 -0.1 79
2019-12-01 21:00:00 19 10 Norte 21 Norte 0 1017.6 -0.2 79
2019-12-01 20:00:00 18 8 Noroeste 14 Noroeste 0 1017.5 -0.3 81
2019-12-01 19:00:00 18 7 Noroeste -- -- 0 1017.5 -0.4 75
2019-12-01 18:00:00 19.1 -- -- -- -- 0 1017.8 -0.4 71
2019-12-01 17:00:00 20.5 14 Norte 24 Nordeste 0 1017.8 -0.7 68
2019-12-01 16:00:00 21.6 16 Norte 29 Nordeste 0 1017.9 -1.2 65
2019-12-01 15:00:00 21.4 20 Nordeste 33 Nordeste 0 1018.2 -1.5 62
2019-12-01 14:00:00 22.4 22 Norte 33 Norte 0 1018.5 -1.7 58
2019-12-01 13:00:00 21.8 22 Norte 32 Nordeste 0 1019.1 -1.2 59
2019-12-01 12:00:00 21.4 18 Norte 27 Nordeste 0 1019.7 0.3 60
2019-12-01 11:00:00 22 18 Nordeste 29 Norte 0 1020.2 1.3 60
2019-12-01 10:00:00 21.2 22 Nordeste 29 Nordeste 0 1020.3 1.8 62
2019-12-01 09:00:00 18.6 20 Nordeste 31 Nordeste 0 1019.4 1.2 76
2019-12-01 08:00:00 18.4 20 Nordeste 31 Nordeste 0 1018.9 0.8 78
2019-12-01 07:00:00 18.3 23 Nordeste 34 Nordeste 0 1018.5 0.4 80
2019-12-01 06:00:00 18.4 26 Nordeste 37 Nordeste 0 1018.2 -0.1 78
2019-12-01 05:00:00 18.3 28 Nordeste 36 Nordeste 0 1018.1 -0.5 81
2019-12-01 04:00:00 18.3 28 Nordeste 40 Nordeste 0 1018.1 -0.8 82
2019-12-01 03:00:00 18.4 30 Nordeste 39 Nordeste 0 1018.3 -1 82
2019-12-01 02:00:00 18.5 26 Nordeste 39 Nordeste 0 1018.6 -1 83
2019-12-01 01:00:00 18.6 29 Nordeste 41 Nordeste 0 1018.9 -0.7 82
2019-12-01 00:00:00 18.8 28 Nordeste 38 Nordeste 0 1019.3 0.1 84
2019-11-30 23:00:00 18.9 28 Nordeste 37 Nordeste 0 1019.6 0.8 85
2019-11-30 22:00:00 19 26 Nordeste 39 Nordeste 0 1019.6 1.1 87
2019-11-30 21:00:00 19.1 30 Nordeste 40 Nordeste 0 1019.2 1.1 88
2019-11-30 20:00:00 19.1 30 Nordeste 40 Nordeste 0 1018.8 0.9 88
2019-11-30 19:00:00 19.3 30 Nordeste 39 Nordeste 0 1018.5 0.5 89
2019-11-30 18:00:00 19.7 29 Nordeste 40 Nordeste 0 1018.1 0 86
2019-11-30 17:00:00 20.8 31 Nordeste 38 Nordeste 0 1017.9 -0.5 81
2019-11-30 16:00:00 21.8 30 Nordeste 39 Nordeste 0 1018 -0.8 77
2019-11-30 15:00:00 21.9 32 Nordeste 40 Nordeste 0 1018.1 -0.9 77
2019-11-30 14:00:00 22.4 30 Nordeste 37 Nordeste 0 1018.4 -0.4 76
2019-11-30 13:00:00 22.6 27 Nordeste 42 Nordeste 0 1018.8 -0.4 76
2019-11-30 12:00:00 22.9 33 Nordeste -- -- 0 1019 0.4 74
2019-11-30 11:00:00 22.8 -- -- -- -- 0 1018.8 0.6 71
2019-11-30 10:00:00 21.8 -- -- -- -- 0 1019.2 1.7 74
2019-11-30 09:00:00 20.4 30 Nordeste 39 Nordeste 0 1018.6 1.5 86
2019-11-30 08:00:00 19.2 32 Nordeste 39 Nordeste 0 1018.2 1.2 91
2019-11-30 07:00:00 19.1 31 Nordeste 39 Nordeste 0 1017.5 0.6 87
2019-11-30 06:00:00 19.3 30 Nordeste 39 Nordeste 0 1017.1 0.1 77
2019-11-30 05:00:00 19.4 26 Nordeste 36 Nordeste 0 1017 -0.1 70
2019-11-30 04:00:00 19.2 31 Nordeste 38 Nordeste 0 1016.9 -0.1 82
2019-11-30 03:00:00 19.3 31 Nordeste 39 Nordeste 0 1017 -0.1 84
2019-11-30 02:00:00 19.2 26 Nordeste 38 Nordeste 0 1017.1 0 88
2019-11-30 01:00:00 19.3 29 Nordeste 37 Nordeste 0 1017 -0.1 85
2019-11-30 00:00:00 19.3 29 Nordeste 39 Nordeste 0 1017.1 0.2 89
2019-11-29 23:00:00 19.3 32 Nordeste 41 Nordeste 0 1017.1 0.7 90
2019-11-29 22:00:00 19.3 34 Nordeste 42 Nordeste 0 1017.1 1.2 89
2019-11-29 21:00:00 19.5 30 Nordeste 39 Nordeste 0 1016.9 1.2 86
2019-11-29 20:00:00 19.5 30 Nordeste 39 Nordeste 0 1016.4 0.9 89
2019-11-29 19:00:00 19.6 31 Nordeste 39 Nordeste 0 1015.9 0.7 89
2019-11-29 18:00:00 20 29 Nordeste 40 Nordeste 0 1015.7 1 87
2019-11-29 17:00:00 21.2 31 Nordeste 39 Nordeste 0 1015.5 0.1 82
2019-11-29 16:00:00 22.3 30 Nordeste 40 Nordeste 0 1015.2 -0.6 76
2019-11-29 15:00:00 23 33 Nordeste 44 Nordeste 0 1014.7 -1.7 72
2019-11-29 14:00:00 23.1 30 Norte 44 Norte 0 1015.4 -1.2 70
2019-11-29 13:00:00 23.1 -- -- -- -- 0 1015.8 -0.8 71
2019-11-29 12:00:00 27.5 -- -- -- -- 0 1016.4 0.4 31
2019-11-29 11:00:00 25.7 -- -- -- -- 0 1016.6 1.1 41
2019-11-29 10:00:00 24 24 Nordeste 38 Nordeste 0 1016.6 1.5 52
2019-11-29 09:00:00 21.6 28 Nordeste 42 Nordeste 0 1016 1.4 66
2019-11-29 08:00:00 19.6 29 Nordeste 42 Nordeste 0 1015.5 1.3 80
2019-11-29 07:00:00 19.3 29 Nordeste 43 Nordeste 0 1015.1 0.3 84
2019-11-29 06:00:00 19.4 30 Nordeste 40 Nordeste 0 1014.6 0 79
2019-11-29 05:00:00 19.5 25 Nordeste 39 Nordeste 0 1014.2 -0.6 70
2019-11-29 04:00:00 19.1 23 Nordeste 40 Nordeste 0 1014.8 0.1 83
2019-11-29 03:00:00 19.2 30 Nordeste 41 Nordeste 0 1014.6 -0.6 88
2019-11-29 02:00:00 19.1 31 Nordeste 44 Nordeste 0 1014.8 -0.7 90
2019-11-29 01:00:00 19 35 Nordeste 42 Nordeste 0 1014.7 -0.8 91
2019-11-29 00:00:00 18.9 31 Nordeste 40 Nordeste 0 1015.2 -0.1 89
2019-11-28 23:00:00 19.1 31 Nordeste 40 Nordeste 0 1015.5 0.7 89
2019-11-28 22:00:00 19.1 32 Nordeste 39 Nordeste 0 1015.5 1.1 89
2019-11-28 21:00:00 19 32 Nordeste 40 Nordeste 0 1015.3 1 89
2019-11-28 20:00:00 19.1 31 Nordeste 39 Nordeste 0 1014.8 1.1 89
2019-11-28 19:00:00 19.1 30 Nordeste 38 Nordeste 0 1014.4 0.7 87
2019-11-28 18:00:00 19.3 26 Nordeste 38 Nordeste 0 1014.3 0.4 85
2019-11-28 17:00:00 19.9 29 Nordeste 39 Nordeste 0 1013.7 -0.7 81
2019-11-28 16:00:00 21.3 28 Nordeste 37 Nordeste 0 1013.7 -1.5 75
2019-11-28 15:00:00 21.5 25 Nordeste 32 Nordeste 0 1013.9 -2.2 74
2019-11-28 14:00:00 21.8 21 Nordeste 33 Nordeste 0 1014.4 -2.1 71
2019-11-28 13:00:00 22.8 22 Nordeste -- -- 0 1015.2 -1.3 67
2019-11-28 12:00:00 20.5 -- -- -- -- 0 1016.1 0.3 77
2019-11-28 11:00:00 20.2 -- -- -- -- 0 1016.5 1.5 76
2019-11-28 10:00:00 20.6 -- -- -- -- 0 1016.5 1.7 73
2019-11-28 09:00:00 19.1 19 Este 41 Nordeste 0 1015.8 1.8 79
2019-11-28 08:00:00 18.3 30 Nordeste 39 Nordeste 0 1015 1.1 83
2019-11-28 07:00:00 18.3 26 Nordeste 37 Nordeste 0 1014.8 0.3 81
2019-11-28 06:00:00 18.1 28 Nordeste 38 Nordeste 0 1014 -0.4 83
2019-11-28 05:00:00 18.2 26 Nordeste 32 Nordeste 0 1013.9 -0.9 81
2019-11-28 04:00:00 18.3 22 Nordeste 31 Nordeste 0 1014.5 -0.5 81
2019-11-28 03:00:00 18.1 23 Nordeste 33 Nordeste 0 1014.4 -1.2 82
2019-11-28 02:00:00 18.1 23 Nordeste 33 Nordeste 0 1014.8 -1.3 81
2019-11-28 01:00:00 18.1 25 Nordeste 33 Nordeste 0 1015 -1.2 81
2019-11-28 00:00:00 18.3 24 Nordeste 30 Nordeste 0 1015.6 -0.4 79
2019-11-27 23:00:00 18.7 21 Nordeste 31 Nordeste 0 1016.1 0.6 78
2019-11-27 22:00:00 18.9 19 Nordeste 25 Nordeste 0 1016.2 1.1 78
2019-11-27 21:00:00 19 18 Nordeste 24 Nordeste 0 1016 1.3 79
2019-11-27 20:00:00 18.9 18 Nordeste 24 Nordeste 0 1015.5 1.1 79
2019-11-27 19:00:00 18.9 17 Nordeste 28 Nordeste 0 1015.1 0.8 79
2019-11-27 18:00:00 19.3 18 Nordeste 29 Nordeste 0 1014.7 0.4 78
2019-11-27 17:00:00 20.1 22 Nordeste -- -- 0 1014.4 -0.2 73
2019-11-27 16:00:00 21.2 22 Nordeste 29 Nordeste 0 1014.3 -1.3 69
2019-11-27 15:00:00 21.6 22 Nordeste 31 Nordeste 0 1014.3 -2 67
2019-11-27 14:00:00 22 22 Nordeste 30 Nordeste 0 1014.6 -2.1 64
2019-11-27 13:00:00 21.7 20 Nordeste -- -- 0 1015.6 -1 66
2019-11-27 05:00:00 18.4 24 Nordeste 34 Nordeste 0 1014.2 -0.9 80
2019-11-27 04:00:00 18.4 25 Nordeste 35 Nordeste 0 1014.5 -1 81
2019-11-27 03:00:00 18.4 26 Nordeste 33 Nordeste 0 1014.7 -1 81
2019-11-27 02:00:00 18.4 22 Nordeste 31 Nordeste 0 1015.1 -1 83
2019-11-27 01:00:00 18.4 21 Nordeste 28 Nordeste 0 1015.5 -0.8 85
2019-11-27 00:00:00 18.1 22 Nordeste 30 Nordeste 0 1015.7 -0.2 84
2019-11-26 23:00:00 18.1 18 Nordeste 26 Nordeste 0 1016.1 0.3 84
2019-11-26 22:00:00 18.2 19 Nordeste 27 Nordeste 0 1016.3 1 85
2019-11-26 21:00:00 18.3 21 Nordeste 28 Nordeste 0 1015.9 0.6 84
2019-11-26 20:00:00 18.5 22 Nordeste 29 Nordeste 0 1015.8 1 83
2019-11-26 19:00:00 18.6 21 Nordeste 28 Nordeste 0 1015.3 0.7 82
2019-11-26 18:00:00 19.2 21 Nordeste 29 Nordeste 0 1015.3 0.7 79
2019-11-26 17:00:00 20.1 22 Nordeste -- -- 0 1014.8 -0.1 77
2019-11-26 16:00:00 21.2 25 Nordeste 35 Nordeste 0 1014.6 -0.8 72
2019-11-26 15:00:00 21.7 26 Nordeste 36 Nordeste 0 1014.6 -1.6 68
2019-11-26 14:00:00 22 27 Nordeste 36 Nordeste 0 1014.9 -1.7 68
2019-11-26 13:00:00 22.2 24 Nordeste 32 Nordeste 0 1015.4 -1.2 68
2019-11-26 12:00:00 22 22 Nordeste 28 Nordeste 0 1016.2 0.2 68
2019-11-26 11:00:00 21.7 24 Nordeste 31 Nordeste 0 1016.6 1 70
2019-11-26 10:00:00 20.7 20 Nordeste 30 Nordeste 0 1016.6 1.5 72
2019-11-26 09:00:00 19.2 23 Nordeste 31 Nordeste 0 1016 1 77
2019-11-26 08:00:00 18.6 24 Nordeste 33 Nordeste 0 1015.6 0.6 79
2019-11-26 07:00:00 18.4 24 Nordeste 32 Nordeste 0 1015.1 -0.4 78
2019-11-26 06:00:00 18.5 22 Nordeste 29 Nordeste 0 1015 -0.4 80
2019-11-26 05:00:00 18.2 19 Nordeste 26 Nordeste 0 1015 -0.1 82
2019-11-26 04:00:00 18.3 17 Nordeste 28 Nordeste 0 1015.5 0 83
2019-11-26 03:00:00 18.3 21 Nordeste 39 Nordeste 0 1015.4 -1.1 83
2019-11-26 02:00:00 18.4 31 Nordeste 45 Nordeste 0 1015.1 -1.6 83
2019-11-26 01:00:00 18.3 32 Nordeste 40 Nordeste 0 1015.5 -1.5 81
2019-11-26 00:00:00 18.2 27 Nordeste 37 Nordeste 0 1016.5 -0.7 82
2019-11-25 23:00:00 18.3 27 Nordeste 35 Nordeste 0 1016.7 -0.3 80
2019-11-25 22:00:00 18.3 22 Nordeste 30 Nordeste 0 1017 0.3 79
2019-11-25 21:00:00 18.3 18 Norte -- -- 0 1017.2 1 81
2019-11-25 20:00:00 18.7 20 Norte 27 Norte 0 1017 0.9 80
2019-11-25 19:00:00 18.8 19 Nordeste 27 Norte 0 1016.7 0.8 78
2019-11-25 18:00:00 19 21 Nordeste 32 Nordeste 0 1016.2 0.2 75
2019-11-25 17:00:00 19.7 24 Nordeste 33 Nordeste 0 1016.1 -0.2 73
2019-11-25 16:00:00 20.5 24 Nordeste 36 Nordeste 0 1015.9 -1 70
2019-11-25 15:00:00 21.3 26 Nordeste 35 Nordeste 0 1016 -1.8 66
2019-11-25 14:00:00 21.9 26 Nordeste 36 Nordeste 0 1016.3 -2.1 64
2019-11-25 13:00:00 21 26 Nordeste 37 Nordeste 0 1016.9 -1.4 66
2019-11-25 12:00:00 20.7 25 Nordeste 37 Nordeste 0 1017.8 0.2 68
2019-11-25 11:00:00 20.4 25 Nordeste 35 Nordeste 0 1018.4 1.5 68
2019-11-25 10:00:00 19.7 25 Nordeste 38 Nordeste 0 1018.3 1.8 71
2019-11-25 09:00:00 19.2 23 Nordeste 33 Nordeste 0 1017.6 1.6 72
2019-11-25 08:00:00 18.6 23 Nordeste 33 Nordeste 0 1016.9 1 74
2019-11-25 07:00:00 18.4 22 Nordeste 36 Nordeste 0 1016.5 0.2 73
2019-11-25 06:00:00 18.4 26 Nordeste 34 Nordeste 0 1016 -0.3 74
2019-11-25 05:00:00 18.5 21 Nordeste 30 Nordeste 0 1015.9 -0.7 76
2019-11-25 04:00:00 18.5 18 Nordeste 30 Nordeste 0 1016.3 -0.6 75
2019-11-25 03:00:00 18.3 21 Nordeste 31 Nordeste 0 1016.3 -1 75
2019-11-25 02:00:00 18.6 23 Norte 33 Nordeste 0 1016.6 -0.9 71
2019-11-25 01:00:00 18.7 18 Nordeste 32 Nordeste 0 1016.9 -0.8 73
2019-11-25 00:00:00 18.5 22 Nordeste 33 Nordeste 0 1017.3 -0.4 73
2019-11-24 23:00:00 18.6 22 Norte 30 Nordeste 0 1017.5 0.4 72
2019-11-24 22:00:00 18.6 21 Norte 30 Nordeste 0 1017.7 1.2 69
2019-11-24 21:00:00 18.9 22 Norte 34 Nordeste 0 1017.7 1.7 67
2019-11-24 20:00:00 19.1 18 Norte 34 Norte 0 1017.1 1.2 67
2019-11-24 19:00:00 19.4 23 Norte 34 Norte 0 1016.5 0.6 69
2019-11-24 18:00:00 19.6 23 Norte 33 Norte 0 1016 0 69
2019-11-24 17:00:00 20.2 22 Norte 34 Norte 0 1015.9 -0.2 65
2019-11-24 16:00:00 21.3 22 Norte 38 Norte 0 1015.9 -0.8 62
2019-11-24 15:00:00 21.1 24 Nordeste 36 Nordeste 0 1016 -1.5 61
2019-11-24 14:00:00 22.1 25 Norte 36 Nordeste 0 1016.1 -1.8 60
2019-11-24 13:00:00 22 -- -- -- -- 0 1016.7 -1.2 57
2019-11-24 12:00:00 22.2 -- -- -- -- 0 1017.5 0.2 57
2019-11-24 11:00:00 21.6 29 Norte 44 Nordeste 0 1017.9 1.3 58
2019-11-24 10:00:00 20.7 27 Nordeste 37 Nordeste 0 1017.9 1.8 64
2019-11-24 09:00:00 19.6 21 Norte 33 Nordeste 0 1017.3 1.9 72
2019-11-24 08:00:00 18.7 23 Nordeste 31 Norte 0 1016.6 1.2 80
2019-11-24 07:00:00 18.6 18 Norte 29 Norte 0 1016.1 0.5 79
2019-11-24 06:00:00 18.6 18 Norte 28 Norte 0 1015.4 -0.6 80
2019-11-24 05:00:00 19 17 Norte 35 Norte 0 1015.4 -0.7 82
2019-11-24 04:00:00 18.4 14 Norte 24 Norte 0 1015.6 -0.8 87
2019-11-24 03:00:00 18 16 Nordeste 33 Nordeste 0 1016 -0.9 88
2019-11-24 02:00:00 18.6 17 Norte 26 Norte 0 1016.1 -1 82
2019-11-24 01:00:00 18.7 19 Norte 27 Norte 0 1016.4 -0.6 85
2019-11-24 00:00:00 19.2 16 Norte 24 Norte 0 1016.9 0.2 82
2019-11-23 23:00:00 19.3 15 Norte 26 Norte 0 1017.1 0.5 82
2019-11-23 22:00:00 18.9 13 Norte 25 Norte 0 1017 1.2 84
2019-11-23 21:00:00 19.1 15 Norte 23 Norte 0 1016.7 1.4 83
2019-11-23 20:00:00 18.9 11 Norte 23 Norte 0 1016.6 1.8 83
2019-11-23 19:00:00 19.4 15 Norte 27 Norte 0 1015.8 1.3 80
2019-11-23 18:00:00 19.9 17 Norte -- -- 0 1015.3 0.7 75
2019-11-23 17:00:00 21.4 -- -- -- -- 0 1014.8 -0.2 71
2019-11-23 16:00:00 22.2 -- -- -- -- 0 1014.5 -1.3 69
2019-11-23 15:00:00 22.1 -- -- -- -- 0 1014.6 -1.8 74
2019-11-23 14:00:00 21.7 19 Norte -- -- 0.2 1015 -1.7 81
2019-11-23 13:00:00 21.6 24 Norte -- -- 0 1015.8 -0.8 80
2019-11-23 12:00:00 21.6 -- -- -- -- 0.6 1016.4 0.5 87
2019-11-23 11:00:00 22 -- -- -- -- 0 1016.7 1.4 88
2019-11-23 10:00:00 21.3 12 Oeste 18 Oeste 0 1016.6 2 92
2019-11-23 09:00:00 20.6 7 Oeste 13 Oeste 0 1015.9 1.7 95
2019-11-23 08:00:00 19.9 7 Oeste 20 Noroeste 0 1015.3 1.1 93
2019-11-23 07:00:00 20.2 6 Oeste 12 Oeste 0 1014.6 0.2 95
2019-11-23 06:00:00 19.9 6 Oeste 13 Oeste 0 1014.2 -0.7 94
2019-11-23 05:00:00 19.7 3 Sudoeste 12 Sudoeste 0 1014.2 -0.8 95
2019-11-23 04:00:00 19.5 6 Sudoeste 11 Oeste 0 1014.4 -0.8 95
2019-11-23 03:00:00 19.5 9 Oeste 17 Oeste 0 1014.9 -0.5 95
2019-11-23 02:00:00 20 13 Oeste 18 Oeste 0 1015 -0.4 94
2019-11-23 01:00:00 20.1 13 Sudoeste 18 Sudoeste 0 1015.2 -0.1 95
2019-11-23 00:00:00 19.6 11 Sudoeste 15 Sudoeste 0 1015.4 0.5 93
2019-11-22 23:00:00 19.9 10 Sudoeste 15 Oeste 0 1015.4 0.9 92
2019-11-22 22:00:00 19.8 12 Sudoeste 17 Oeste 0 1015.3 1.3 91
2019-11-22 21:00:00 20.2 13 Sudoeste 21 Oeste 0 1014.9 1.5 84
2019-11-22 20:00:00 20.6 13 Oeste 19 Oeste 0 1014.5 1.5 82
2019-11-22 19:00:00 20.6 12 Oeste 20 Oeste 0 1014 1.2 78
2019-11-22 18:00:00 20.9 14 Oeste 21 Oeste 0 1013.4 0.5 77
2019-11-22 17:00:00 22.2 15 Oeste 22 Oeste 0 1013 -0.4 70
2019-11-22 16:00:00 22.6 15 Sudoeste 21 Sur 0 1012.8 -1.3 77
2019-11-22 15:00:00 22.7 18 Sur 22 Sur 0 1012.9 -1.8 77
2019-11-22 14:00:00 22.7 10 Sudoeste 22 Oeste 0 1013.4 -1.5 75
2019-11-22 13:00:00 22.6 10 Oeste 19 Noroeste 0 1014.1 -0.4 74
2019-11-22 12:00:00 21.8 14 Oeste 18 Oeste 0 1014.7 0.7 77
2019-11-22 11:00:00 21.4 14 Noroeste 21 Noroeste 0 1014.9 2 81
2019-11-22 10:00:00 21.2 9 Noroeste 18 Noroeste 0 1014.5 2.2 85
2019-11-22 09:00:00 19.6 12 Noroeste 17 Noroeste 0 1014 2.6 91
2019-11-22 08:00:00 19.1 3 Oeste 7 Sudoeste 0.2 1012.9 1.5 98
2019-11-22 07:00:00 18.7 4 Oeste 5 Oeste 0 1012.3 0.8 98
2019-11-22 06:00:00 19 3 Oeste 27 Sudoeste 0.2 1011.4 -0.5 98
2019-11-22 05:00:00 19.3 20 Sudoeste 28 Sudoeste 0.2 1011.4 -0.5 100
2019-11-22 04:00:00 19.3 18 Sudoeste 29 Sudoeste 0 1011.5 -0.6 95
2019-11-22 03:00:00 19.9 19 Sudoeste 30 Sudoeste 0 1011.9 -0.6 90
2019-11-22 02:00:00 20.1 17 Sudoeste 32 Oeste 0 1011.9 -0.5 87
2019-11-22 01:00:00 19.9 20 Sudoeste 28 Sudoeste 0 1012.1 -0.3 88
2019-11-22 00:00:00 20.2 18 Sudoeste 26 Sudoeste 0 1012.5 -0.1 86
2019-11-21 23:00:00 20.1 17 Sudoeste 23 Sudoeste 0 1012.4 0 86
2019-11-21 22:00:00 20.2 17 Sudoeste 24 Sudoeste 0 1012.4 0.1 83
2019-11-21 21:00:00 19.8 15 Sudoeste 24 Sudoeste 0 1012.6 0.5 84
2019-11-21 20:00:00 19.8 18 Sudoeste 26 Sudoeste 0 1012.4 1 79
2019-11-21 19:00:00 20.1 18 Sudoeste 29 Sudoeste 0 1012.3 0.5 75
2019-11-21 18:00:00 20.4 20 Sudoeste 27 Sudoeste 0 1012.1 0.4 72
2019-11-21 17:00:00 21.2 21 Sudoeste 27 Sudoeste 0 1011.4 -0.9 67
2019-11-21 16:00:00 22.3 19 Sudoeste 31 Oeste 0 1011.8 -0.8 62
2019-11-21 15:00:00 22.4 22 Oeste 37 Oeste 0 1011.7 -1.7 61
2019-11-21 14:00:00 22.6 21 Oeste 31 Oeste 0 1012.3 -1.8 62
2019-11-21 13:00:00 22.4 20 Sudoeste 30 Sudoeste 0 1012.6 -1.7 64
2019-11-21 12:00:00 22.1 18 Sudoeste 23 Sudoeste 0 1013.4 -0.6 69
2019-11-21 11:00:00 21.2 13 Sur 18 Sur 0 1014.1 0.6 76
2019-11-21 10:00:00 19.7 12 Sur 19 Sur 0 1014.3 1.4 80
2019-11-21 09:00:00 19 10 Sur 15 Sur 0 1014 1.4 87
2019-11-21 08:00:00 18.2 11 Sudoeste 14 Sudoeste 0 1013.5 0.5 92
2019-11-21 07:00:00 -- -- -- -- -- -- -- -- --
2019-11-21 06:00:00 -- -- -- -- -- -- -- -- --
2019-11-21 05:00:00 -- -- -- -- -- -- -- -- --
2019-11-21 04:00:00 -- -- -- -- -- -- -- -- --
2019-11-21 03:00:00 -- -- -- -- -- -- -- -- --
2019-11-21 02:00:00 -- -- -- -- -- -- -- -- --
2019-11-21 01:00:00 -- -- -- -- -- -- -- -- --
2019-11-21 00:00:00 -- -- -- -- -- -- -- -- --
2019-11-20 23:00:00 -- -- -- -- -- -- -- -- --
2019-11-20 22:00:00 -- -- -- -- -- -- -- -- --
2019-11-20 21:00:00 -- -- -- -- -- -- -- -- --
2019-11-20 20:00:00 19.7 18 Sudoeste 25 Sudoeste 0 1013.8 0.7 92
2019-11-20 19:00:00 19.7 18 Sudoeste 27 Sudoeste 0 1013.4 0.4 87
2019-11-20 18:00:00 20.6 20 Sudoeste 28 Sudoeste 0 1013.3 0.1 81
2019-11-20 17:00:00 21.2 18 Sudoeste 26 Sudoeste 0 1013.1 -0.6 74
2019-11-20 16:00:00 22.1 17 Sudoeste 26 Sudoeste 0 1013 -1.3 70
2019-11-20 15:00:00 22.8 20 Oeste 32 Oeste 0 1013.2 -1.7 65
2019-11-20 14:00:00 22.5 18 Sudoeste 30 Sudoeste 0 1013.7 -1.9 67
2019-11-20 13:00:00 22.6 21 Sudoeste -- -- 0 1014.3 -1.5 71
2019-11-20 12:00:00 22.4 -- -- -- -- 0 1014.9 -0.4 69
2019-11-20 11:00:00 21.4 14 Sudoeste 17 Sur 0 1015.6 0.6 71
2019-11-20 10:00:00 20.4 14 Sur 18 Sur 0 1015.8 0.9 74
2019-11-20 09:00:00 19.1 10 Sur -- -- 0 1015.3 0.8 79
2019-11-20 08:00:00 16.6 -- -- -- -- 0 1015 0.4 93
2019-11-20 07:00:00 16.1 -- -- -- -- 0 1014.9 0.3 91
2019-11-20 06:00:00 16 8 Sur 11 Sur 0 1014.5 -0.5 91
2019-11-20 05:00:00 16.1 6 Sudoeste 10 Sudoeste 0 1014.6 -0.5 90
2019-11-20 04:00:00 15.4 6 Oeste 11 Sur 0 1014.6 -0.9 86
2019-11-20 03:00:00 15.8 7 Sudoeste 9 Sudoeste 0 1015 -0.7 87
2019-11-20 02:00:00 16.3 6 Sudoeste 9 Sudoeste 0 1015.1 -0.6 85
2019-11-20 01:00:00 15.9 0 Calma 4 Noroeste 0 1015.5 -0.6 84
2019-11-20 00:00:00 15.3 3 Norte 6 Norte 0 1015.7 -0.5 86
2019-11-19 23:00:00 15.2 4 Norte -- -- 0 1015.7 -0.1 83
2019-11-19 22:00:00 15.9 5 Norte 10 Norte 0 1016.1 0.5 82
2019-11-19 21:00:00 16.7 7 Norte 10 Norte 0 1016.2 0.7 81
2019-11-19 20:00:00 17.2 8 Norte 12 Noroeste 0 1015.8 0.4 77
2019-11-19 19:00:00 17.9 5 Norte 19 Norte 0 1015.6 0.3 73
2019-11-19 18:00:00 19 12 Norte 19 Norte 0 1015.5 0 69
2019-11-19 17:00:00 20.2 13 Norte 23 Noroeste 0 1015.4 -0.5 64
2019-11-19 16:00:00 21.4 15 Noroeste -- -- 0 1015.3 -1.1 59
2019-11-19 15:00:00 21.7 -- -- -- -- 0 1015.5 -1.8 59
2019-11-19 14:00:00 20.8 15 Norte 27 Nordeste 0 1015.9 -1.8 66
2019-11-19 13:00:00 20.4 16 Nordeste 28 Nordeste 0 1016.4 -1.3 68
2019-11-19 12:00:00 20.7 17 Norte 27 Norte 0 1017.3 0 68
2019-11-19 11:00:00 19.6 19 Norte 35 Norte 0 1017.7 0.8 78
2019-11-19 10:00:00 18.8 19 Norte 37 Norte 1.4 1017.7 1.1 90
2019-11-19 09:00:00 19 17 Norte 27 Nordeste 0 1017.3 1.1 83
2019-11-19 08:00:00 18.5 17 Norte 29 Norte 0 1016.9 0.8 87
2019-11-19 07:00:00 18.2 11 Norte 29 Norte 0 1016.6 0.2 87
2019-11-19 06:00:00 18.5 16 Norte 25 Noroeste 0 1016.2 -0.4 86
2019-11-19 05:00:00 18.3 14 Noroeste 23 Noroeste 0 1016.1 -1 85
2019-11-19 04:00:00 17.5 10 Noroeste 16 Noroeste 0 1016.4 -1.2 92
2019-11-19 03:00:00 17.3 6 Noroeste 13 Noroeste 0 1016.6 -1.7 95
2019-11-19 02:00:00 18 12 Noroeste -- -- 0.2 1017.1 -1.3 91
2019-11-19 01:00:00 17.9 10 Norte 18 Noroeste 0 1017.6 -0.9 83
2019-11-19 00:00:00 17.5 11 Norte 18 Norte 0 1018.3 -0.3 83
2019-11-18 23:00:00 16.9 10 Norte 15 Norte 0 1018.4 0.1 82
2019-11-18 22:00:00 16.6 8 Norte 13 Norte 0 1018.5 0.3 84
2019-11-18 21:00:00 17 9 Norte 16 Norte 0 1018.6 0.5 78
2019-11-18 20:00:00 17.5 8 Norte 14 Noroeste 0 1018.3 0.2 77
2019-11-18 19:00:00 17.9 8 Norte 15 Norte 0 1018.2 0.2 73
2019-11-18 18:00:00 19.2 11 Norte 26 Norte 0 1018.1 0.1 68
2019-11-18 17:00:00 20.7 16 Nordeste 23 Nordeste 0 1018.1 0 65
2019-11-18 16:00:00 20.9 14 Norte 25 Nordeste 0 1018 -0.9 63
2019-11-18 15:00:00 20.7 -- -- -- -- 0 1018 -1.7 65
2019-11-18 14:00:00 21.4 -- -- -- -- 0 1018.1 -2.3 59
2019-11-18 13:00:00 22.2 -- -- -- -- 0 1018.9 -1.4 59
2019-11-18 12:00:00 22.2 -- -- -- -- 0 1019.7 -0.2 56
2019-11-18 11:00:00 21.9 -- -- -- -- 0 1020.4 1 59
2019-11-18 10:00:00 20.7 19 Nordeste 27 Nordeste 0 1020.3 1.3 63
2019-11-18 09:00:00 18.8 19 Nordeste -- -- 0 1019.9 1.2 71
2019-11-18 08:00:00 16.8 -- -- -- -- 0 1019.4 0.7 79
2019-11-18 07:00:00 16.5 -- -- -- -- 0 1019 0.3 77
2019-11-18 06:00:00 16.7 -- -- -- -- 0 1018.7 -0.2 75
2019-11-18 05:00:00 16.7 -- -- -- -- 0 1018.7 -0.2 75
2019-11-18 04:00:00 16.6 -- -- -- -- 0 1018.7 -0.4 75
2019-11-18 03:00:00 16.4 -- -- -- -- 0 1018.9 -0.4 74
2019-11-18 02:00:00 16.3 -- -- -- -- 0 1018.9 -0.6 74
2019-11-18 01:00:00 16.3 18 Nordeste 29 Nordeste 0 1019.1 -0.5 74
2019-11-18 00:00:00 16.5 19 Nordeste 33 Nordeste 0 1019.3 -0.4 72
2019-11-17 23:00:00 16.6 23 Nordeste 33 Nordeste 0 1019.5 0.2 70
2019-11-17 22:00:00 16.8 24 Nordeste 35 Nordeste 0 1019.6 0.7 71
2019-11-17 21:00:00 16.8 25 Nordeste 36 Nordeste 0 1019.7 1.2 67
2019-11-17 20:00:00 16.8 23 Nordeste 36 Nordeste 0 1019.3 1.1 66
2019-11-17 19:00:00 16.9 21 Nordeste 31 Nordeste 0 1018.9 0.9 64
2019-11-17 18:00:00 17.4 22 Nordeste 32 Nordeste 0 1018.5 0.3 63
2019-11-17 17:00:00 18.6 26 Nordeste 37 Nordeste 0 1018.2 -0.3 58
2019-11-17 16:00:00 19.5 27 Nordeste 41 Nordeste 0 1018 -1.2 54
2019-11-17 15:00:00 20.4 28 Nordeste 40 Nordeste 0 1018.2 -2.1 52
2019-11-17 14:00:00 20.4 31 Nordeste 41 Nordeste 0 1018.5 -2.3 56
2019-11-17 13:00:00 20.8 31 Nordeste 43 Nordeste 0 1019.2 -1.4 53
2019-11-17 12:00:00 20.5 32 Nordeste 42 Nordeste 0 1020.3 0.3 56
2019-11-17 11:00:00 20.4 32 Nordeste 42 Nordeste 0 1020.8 1.4 56
2019-11-17 10:00:00 19.6 27 Nordeste 41 Nordeste 0 1020.6 1.8 59
2019-11-17 09:00:00 18.2 29 Nordeste 40 Nordeste 0 1020 1.8 63
2019-11-17 08:00:00 17.9 29 Nordeste 39 Nordeste 0 1019.4 1.4 66
2019-11-17 07:00:00 17.2 30 Nordeste 43 Nordeste 0 1018.8 1.1 72
2019-11-17 06:00:00 17.6 26 Nordeste 40 Nordeste 0 1018.2 0.5 62
2019-11-17 05:00:00 17.5 30 Nordeste 46 Nordeste 0 1018 0.4 58
2019-11-17 04:00:00 17.9 27 Nordeste 44 Nordeste 0 1017.7 -0.1 60
2019-11-17 03:00:00 17.6 29 Norte 43 Nordeste 0 1017.7 -0.4 62
2019-11-17 02:00:00 17.8 30 Nordeste 43 Norte 0 1017.6 -0.5 66
2019-11-17 01:00:00 17.9 32 Nordeste 45 Nordeste 0 1017.8 -0.4 61
2019-11-17 00:00:00 17.3 27 Nordeste 42 Nordeste 0 1018.1 0.4 59
2019-11-16 23:00:00 17.5 28 Norte 42 Nordeste 0 1018.1 0.6 63
2019-11-16 22:00:00 17.6 32 Nordeste 49 Nordeste 0 1018.2 1.1 66
2019-11-16 21:00:00 17.5 28 Nordeste 43 Norte 0 1017.7 1.2 61
2019-11-16 20:00:00 17.5 30 Norte 45 Norte 0 1017.5 1.1 64
2019-11-16 19:00:00 17 30 Norte 40 Norte 0.2 1017.1 0.8 74
2019-11-16 18:00:00 17.8 33 Norte 50 Norte 0 1016.5 0.3 66
2019-11-16 17:00:00 18.6 30 Norte 57 Nordeste 0 1016.4 0.2 65
2019-11-16 16:00:00 19.1 27 Norte 47 Norte 0 1016.3 -0.2 65
2019-11-16 15:00:00 19.3 37 Nordeste 57 Nordeste 0 1016.2 -1.1 61
2019-11-16 14:00:00 20.8 35 Nordeste 53 Norte 0 1016.2 -1.4 55
2019-11-16 13:00:00 20.9 37 Norte 50 Norte 0 1016.5 -0.9 56
2019-11-16 12:00:00 18.7 37 Nordeste 51 Nordeste 0 1017.3 0.3 69
2019-11-16 11:00:00 20.2 33 Norte 46 Norte 0 1017.6 1.3 58
2019-11-16 10:00:00 19.7 29 Norte 42 Nordeste 0 1017.4 1.6 58
2019-11-16 09:00:00 18.1 35 Norte 51 Norte 0 1017 1.8 60
2019-11-16 08:00:00 17.5 26 Norte 46 Norte 0 1016.3 1.4 68
2019-11-16 07:00:00 16.9 32 Norte 56 Norte 0.2 1015.8 1.1 65
2019-11-16 06:00:00 17.3 28 Norte 48 Norte 0 1015.2 0.2 62
2019-11-16 05:00:00 17.2 31 Norte 49 Norte 0 1014.9 -0.1 67
2019-11-16 04:00:00 17.5 28 Norte 45 Norte 0 1014.7 -0.5 63
2019-11-16 03:00:00 17.4 28 Norte 44 Norte 0 1015 -0.2 68
2019-11-16 02:00:00 17.2 28 Norte 48 Norte 0 1015 -0.3 70
2019-11-16 01:00:00 17.7 29 Norte 47 Norte 0 1015.2 0 64
2019-11-16 00:00:00 17.9 31 Norte 47 Norte 0 1015.2 0.3 59
2019-11-15 23:00:00 18 31 Norte 50 Norte 0 1015.3 0.8 62
2019-11-15 22:00:00 17.4 22 Norte 48 Norte 0 1015.2 1 70
2019-11-15 21:00:00 18 32 Norte 47 Nordeste 0 1014.9 0.9 59
2019-11-15 20:00:00 18.5 29 Norte 45 Norte 0 1014.5 0.5 57
2019-11-15 19:00:00 18.1 27 Norte 42 Norte 0 1014.2 0.2 62
2019-11-15 18:00:00 18.7 28 Norte 41 Norte 0 1014 0 63
2019-11-15 17:00:00 19 27 Norte 53 Nordeste 0 1014 -0.3 65
2019-11-15 16:00:00 19.1 30 Norte 49 Nordeste 0.2 1014 -0.7 64
2019-11-15 15:00:00 20.8 32 Nordeste 48 Nordeste 0 1014 -1.3 61
2019-11-15 14:00:00 20.8 31 Norte 49 Norte 0 1014.3 -1.6 55
2019-11-15 13:00:00 21.3 37 Norte -- -- 0 1014.7 -0.9 51
2019-11-15 12:00:00 21.8 -- -- -- -- 0 1015.3 0.1 48
2019-11-15 11:00:00 21.3 37 Nordeste 50 Norte 0 1015.9 1.2 48
2019-11-15 10:00:00 19.8 33 Norte -- -- 0 1015.6 1.6 62
2019-11-15 09:00:00 18.5 -- -- -- -- 0 1015.2 1.8 62
2019-11-15 08:00:00 17.1 32 Norte 58 Norte 0 1014.7 1.5 83
2019-11-15 07:00:00 18.5 23 Norte 38 Norte 0 1014 0.6 73
2019-11-15 06:00:00 18.4 30 Norte 44 Norte 0 1013.4 -0.5 75
2019-11-15 05:00:00 18.9 28 Norte 40 Norte 0 1013.2 -1.3 72
2019-11-15 04:00:00 19.1 25 Norte 40 Norte 0 1013.4 -1.8 73
2019-11-15 03:00:00 19.1 31 Norte 42 Norte 0 1013.9 -1.8 67
2019-11-15 02:00:00 19.3 23 Norte 36 Norte 0 1014.5 -1 70
2019-11-15 01:00:00 19.5 22 Norte 38 Norte 0 1015.2 0 61
2019-11-15 00:00:00 19.6 30 Norte 44 Norte 0 1015.7 0.7 58
2019-11-14 23:00:00 19.6 30 Norte 42 Norte 0 1015.5 0.7 63
2019-11-14 22:00:00 19.7 29 Nordeste 40 Nordeste 0 1015.2 0.7 62
2019-11-14 21:00:00 19.7 28 Nordeste 41 Norte 0 1015 0.6 64
2019-11-14 20:00:00 19.6 28 Nordeste 39 Nordeste 0 1014.8 0.7 64
2019-11-14 19:00:00 19.4 26 Nordeste 43 Nordeste 0 1014.5 0.2 72
2019-11-14 18:00:00 19.7 31 Nordeste 45 Norte 0 1014.4 0.2 71
2019-11-14 17:00:00 20.6 33 Nordeste 45 Nordeste 0 1014.1 -0.2 65
2019-11-14 16:00:00 21.3 32 Nordeste 44 Norte 0 1014.3 -0.8 70
2019-11-14 15:00:00 22.7 -- -- -- -- 0 1014.2 -1.7 63
2019-11-14 14:00:00 22.6 26 Nordeste 37 Nordeste 0 1014.3 -1.7 61
2019-11-14 13:00:00 22.1 28 Nordeste -- -- 0 1015.1 -0.9 61
2019-11-14 12:00:00 23 -- -- -- -- 0 1015.9 0.3 59
2019-11-14 11:00:00 21.6 31 Nordeste 41 Nordeste 0 1016 1.2 65
2019-11-14 10:00:00 21 27 Nordeste 40 Nordeste 0 1016 1.6 70
2019-11-14 09:00:00 20.1 27 Norte 36 Nordeste 0 1015.6 1.6 77
2019-11-14 08:00:00 19.2 23 Nordeste 30 Nordeste 0 1014.8 1 80
2019-11-14 07:00:00 19.2 21 Nordeste 35 Nordeste 0 1014.4 0.8 82
2019-11-14 06:00:00 19 23 Nordeste 36 Norte 0 1014 0.4 81
2019-11-14 05:00:00 19.1 24 Nordeste 38 Nordeste 0 1013.8 -0.4 80
2019-11-14 04:00:00 18.9 26 Nordeste 40 Norte 0 1013.6 -1.3 78
2019-11-14 03:00:00 18.9 28 Norte 38 Nordeste 0 1013.6 -1.7 78
2019-11-14 02:00:00 18.8 28 Norte 42 Norte 0 1014.2 -1.1 75
2019-11-14 01:00:00 19.1 30 Norte 41 Nordeste 0 1014.9 -0.4 73
2019-11-14 00:00:00 19.2 26 Nordeste 35 Nordeste 0 1015.3 -0.2 74
2019-11-13 23:00:00 19 27 Nordeste 42 Nordeste 0 1015.3 0 71
2019-11-13 22:00:00 19.4 29 Nordeste 41 Norte 0 1015.3 0.3 70
2019-11-13 21:00:00 19.3 30 Nordeste 41 Nordeste 0 1015.5 1 67
2019-11-13 20:00:00 19.6 30 Nordeste 46 Nordeste 0 1015.3 0.8 68
2019-11-13 19:00:00 19.6 30 Nordeste 48 Norte 0 1015 0.5 68
2019-11-13 18:00:00 19.7 35 Norte 48 Nordeste 0 1014.5 0.2 69
2019-11-13 17:00:00 20.2 40 Norte 53 Norte 0 1014.5 0 65
2019-11-13 16:00:00 21 40 Norte -- -- 0 1014.5 -0.7 64
2019-11-13 15:00:00 22 42 Norte 58 Norte 0 1014.3 -1.7 61
2019-11-13 14:00:00 22.2 42 Norte 54 Nordeste 0 1014.5 -2.2 61
2019-11-13 13:00:00 22.6 37 Nordeste 53 Nordeste 0 1015.2 -1.4 61
2019-11-13 12:00:00 22.7 37 Nordeste -- -- 0 1016 -0.4 60
2019-11-13 11:00:00 22.1 39 Nordeste 57 Nordeste 0 1016.7 0.7 66
2019-11-13 10:00:00 21.4 40 Nordeste 57 Nordeste 0 1016.6 1.5 68
2019-11-13 09:00:00 20 36 Nordeste 55 Nordeste 0 1016.4 1.7 72
2019-11-13 08:00:00 19.6 36 Nordeste 50 Nordeste 0 1016 2 76
2019-11-13 07:00:00 19.2 37 Nordeste 49 Nordeste 0 1015.1 1.3 78
2019-11-13 06:00:00 18.9 35 Norte 48 Norte 0 1014.7 0.7 81
2019-11-13 05:00:00 18.9 38 Nordeste 54 Nordeste 0 1014 -0.5 81
2019-11-13 04:00:00 18.9 36 Nordeste 50 Norte 0 1013.8 -1.2 81
2019-11-13 03:00:00 18.6 29 Nordeste 40 Nordeste 0 1014 -1.3 83
2019-11-13 02:00:00 18.7 27 Nordeste 38 Norte 0 1014.5 -1 83
2019-11-13 01:00:00 18.9 26 Norte 43 Nordeste 0 1015 -0.8 83
2019-11-13 00:00:00 19 32 Nordeste 45 Norte 0 1015.3 -0.2 80
2019-11-12 23:00:00 19 29 Norte 41 Norte 0 1015.5 0.5 81
2019-11-12 22:00:00 19.1 29 Norte 42 Norte 0 1015.8 0.9 79
2019-11-12 21:00:00 19.2 28 Norte 45 Norte 0 1015.5 0.8 79
2019-11-12 20:00:00 19.3 33 Norte 47 Norte 0 1015 0.3 79
2019-11-12 19:00:00 19.4 32 Norte 46 Nordeste 0 1014.9 0.6 77
2019-11-12 18:00:00 19.7 37 Norte -- -- 0 1014.7 0 74
2019-11-12 17:00:00 20.3 39 Norte -- -- 0 1014.7 -0.6 72
2019-11-12 16:00:00 21.5 43 Norte 58 Nordeste 0 1014.3 -1.5 67
2019-11-12 15:00:00 22.4 39 Norte 57 Nordeste 0 1014.7 -2 64
2019-11-12 14:00:00 22.8 42 Norte 57 Norte 0 1015.3 -1.8 61
2019-11-12 13:00:00 23.1 39 Nordeste 53 Norte 0 1015.8 -1.3 64
2019-11-12 12:00:00 23.2 37 Nordeste 53 Nordeste 0 1016.7 0.4 63
2019-11-12 11:00:00 22.3 37 Nordeste 49 Nordeste 0 1017.1 1.1 72
2019-11-12 10:00:00 21 30 Nordeste 50 Nordeste 0 1017.1 1.3 81
2019-11-12 09:00:00 21.1 35 Nordeste 52 Nordeste 0 1016.3 0.9 82
2019-11-12 08:00:00 20.1 33 Nordeste 46 Norte 0 1016 1.1 83
2019-11-12 07:00:00 19.7 33 Nordeste 54 Nordeste 0 1015.8 0.4 88
2019-11-12 06:00:00 19.8 36 Norte 55 Norte 0 1015.4 -0.3 84
2019-11-12 05:00:00 20.1 41 Norte 61 Norte 0 1014.9 -1.6 82
2019-11-12 04:00:00 19.7 35 Nordeste 54 Norte 0 1015.4 -1.1 83
2019-11-12 03:00:00 20 35 Norte 53 Norte 0 1015.7 -1.9 83
2019-11-12 02:00:00 20 30 Norte 48 Norte 0 1016.5 -1.2 80
2019-11-12 01:00:00 20 37 Norte 51 Norte 0 1016.5 -1.2 79
2019-11-12 00:00:00 19.9 38 Norte 58 Nordeste 0 1017.6 -0.6 74
2019-11-11 23:00:00 20 45 Norte 59 Norte 0 1017.7 -0.3 72
2019-11-11 22:00:00 20 38 Norte 55 Norte 0 1017.7 -0.1 75
2019-11-11 21:00:00 20.1 33 Norte 57 Norte 0 1018.2 0.7 75
2019-11-11 20:00:00 20.2 38 Norte 60 Norte 0 1018 0.4 73
2019-11-11 19:00:00 20.4 39 Norte 59 Norte 0 1017.8 0.2 75
2019-11-11 18:00:00 20.3 40 Norte -- -- 0 1017.5 -0.6 73
2019-11-11 17:00:00 20.9 -- -- -- -- 0 1017.6 -1.1 71
2019-11-11 16:00:00 21.5 -- -- -- -- 0 1017.6 -2 69
2019-11-11 15:00:00 21.9 37 Norte 57 Norte 0 1018.1 -2.3 68
2019-11-11 14:00:00 22.1 44 Norte 63 Nordeste 0 1018.7 -2.3 65
2019-11-11 13:00:00 22.1 45 Nordeste 63 Nordeste 0 1019.6 -1.8 63
2019-11-11 12:00:00 22.5 -- -- -- -- 0 1020.4 -0.9 60
2019-11-11 11:00:00 22.6 41 Norte -- -- 0 1021 -0.2 57
2019-11-11 10:00:00 21.1 40 Nordeste 55 Nordeste 0 1021.4 0.9 64
2019-11-11 09:00:00 20.5 39 Nordeste 56 Nordeste 0 1021.3 1 66
2019-11-11 08:00:00 19.8 36 Nordeste 53 Norte 0 1021.2 1.2 68
2019-11-11 07:00:00 19.5 36 Nordeste 53 Nordeste 0 1020.5 0.4 68
2019-11-11 06:00:00 19.5 39 Nordeste 57 Nordeste 0 1020.3 -0.1 67
2019-11-11 05:00:00 19.4 35 Nordeste 51 Nordeste 0 1020 -0.9 72
2019-11-11 04:00:00 19.6 36 Nordeste 55 Norte 0 1020.1 -1.2 72
2019-11-11 03:00:00 19.7 40 Nordeste 57 Nordeste 0 1020.4 -0.9 71
2019-11-11 02:00:00 19.7 39 Nordeste 56 Nordeste 0 1020.9 -0.7 67
2019-11-11 01:00:00 19.3 36 Nordeste 53 Norte 0 1021.3 -0.5 65
2019-11-11 00:00:00 19.4 40 Norte 52 Nordeste 0 1021.3 -0.7 63
2019-11-10 23:00:00 19.9 35 Norte 52 Nordeste 0 1021.6 0 65
2019-11-10 22:00:00 19.7 38 Nordeste 51 Norte 0 1021.8 0.2 64
2019-11-10 21:00:00 20 36 Nordeste 53 Nordeste 0 1022 1 67
2019-11-10 20:00:00 20 36 Norte 47 Nordeste 0 1021.6 0.5 69
2019-11-10 19:00:00 19.9 31 Nordeste 48 Nordeste 0 1021.6 0.7 69
2019-11-10 18:00:00 19.8 33 Nordeste 46 Nordeste 0 1021 0.3 67
2019-11-10 17:00:00 20.7 35 Norte 49 Norte 0 1021.1 0.4 64
2019-11-10 16:00:00 21.8 35 Nordeste 49 Nordeste 0 1020.9 -0.4 65
2019-11-10 15:00:00 22.3 38 Nordeste 50 Nordeste 0 1020.7 -1.5 69
2019-11-10 14:00:00 22.6 35 Nordeste 47 Nordeste 0 1020.7 -1.8 67
2019-11-10 13:00:00 23.4 38 Nordeste -- -- 0 1021.3 -1.2 62
2019-11-10 12:00:00 22.8 -- -- -- -- 0 1022.2 -0.1 66
2019-11-10 11:00:00 22.5 -- -- -- -- 0 1022.5 1 64
2019-11-10 10:00:00 21.6 42 Nordeste 55 Nordeste 0 1022.5 1.8 65
2019-11-10 09:00:00 19.9 40 Nordeste 51 Nordeste 0 1022.3 1.8 67
2019-11-10 08:00:00 19.3 38 Nordeste 53 Nordeste 0 1021.5 1.4 71
2019-11-10 07:00:00 18.8 37 Nordeste 57 Nordeste 0 1020.7 0.4 72
2019-11-10 06:00:00 18.8 40 Nordeste 55 Nordeste 0 1020.5 -0.1 70
2019-11-10 05:00:00 18.6 37 Nordeste 49 Nordeste 0 1020.1 -0.7 70
2019-11-10 04:00:00 18.7 33 Nordeste 51 Nordeste 0 1020.3 -0.6 70
2019-11-10 03:00:00 18.8 39 Nordeste 49 Nordeste 0 1020.6 -0.6 70
2019-11-10 02:00:00 18.8 37 Nordeste 53 Nordeste 0 1020.8 -0.5 67
2019-11-10 01:00:00 18.9 37 Nordeste 54 Nordeste 0 1020.9 -0.2 68
2019-11-10 00:00:00 18.9 39 Nordeste 53 Nordeste 0 1021.2 0.7 65
2019-11-09 23:00:00 19.1 33 Nordeste 50 Nordeste 0 1021.3 1.1 67
2019-11-09 22:00:00 19.3 37 Nordeste 53 Norte 0 1021.1 1.2 66
2019-11-09 21:00:00 19.3 35 Nordeste 50 Norte 0 1020.5 1 73
2019-11-09 20:00:00 19.3 34 Nordeste 54 Norte 0 1020.2 0.9 73
2019-11-09 19:00:00 19.4 41 Norte 57 Norte 0 1019.9 0.8 64
2019-11-09 18:00:00 19.8 41 Norte 57 Norte 0 1019.5 0.4 62
2019-11-09 17:00:00 20.4 39 Nordeste 59 Nordeste 0 1019.3 0.2 59
2019-11-09 16:00:00 21 41 Norte -- -- 0 1019.1 -0.8 59
2019-11-09 15:00:00 21.1 44 Nordeste 64 Nordeste 0 1019.1 -1.2 55
2019-11-09 14:00:00 22.4 45 Nordeste 59 Nordeste 0 1019.1 -1.5 51
2019-11-09 13:00:00 22.4 40 Nordeste 59 Nordeste 0 1019.9 -0.5 47
2019-11-09 12:00:00 22.4 41 Nordeste 61 Nordeste 0 1020.3 0.6 52
2019-11-09 11:00:00 22.4 41 Nordeste 59 Nordeste 0 1020.6 1.5 51
2019-11-09 10:00:00 20.9 40 Nordeste 61 Nordeste 0 1020.4 2.1 56
2019-11-09 09:00:00 20.3 41 Nordeste 54 Nordeste 0 1019.7 1.6 57
2019-11-09 08:00:00 19.6 35 Nordeste 53 Norte 0 1019.1 1.2 60
2019-11-09 07:00:00 19.8 42 Norte 57 Norte 0 1018.3 0.4 58
2019-11-09 06:00:00 18.9 35 Nordeste 57 Nordeste 0 1018.1 -0.3 66
2019-11-09 05:00:00 19.5 33 Norte 48 Norte 0 1017.9 -0.7 71
2019-11-09 04:00:00 19.2 32 Nordeste 56 Nordeste 0 1017.9 -0.8 70
2019-11-09 03:00:00 19.6 35 Norte 47 Norte 0 1018.4 -0.6 68
2019-11-09 02:00:00 19.4 31 Nordeste 49 Nordeste 0 1018.6 -0.5 66
2019-11-09 01:00:00 19.4 33 Nordeste 45 Nordeste 0 1018.7 -0.2 70
2019-11-09 00:00:00 19.9 31 Nordeste 51 Norte 0 1019 0.4 69
2019-11-08 23:00:00 19.7 35 Nordeste 53 Nordeste 0 1019.1 0.7 64
2019-11-08 22:00:00 19.6 38 Nordeste 51 Nordeste 0 1018.9 1.1 63
2019-11-08 21:00:00 19.4 36 Nordeste 54 Nordeste 0 1018.6 1.3 61
2019-11-08 20:00:00 19.5 38 Nordeste 52 Nordeste 0 1018.4 1.2 61
2019-11-08 19:00:00 19.9 39 Nordeste 57 Nordeste 0 1017.8 1 63
2019-11-08 18:00:00 20.3 42 Nordeste 55 Nordeste 0 1017.3 0.7 65
2019-11-08 17:00:00 20.7 37 Nordeste 54 Nordeste 0 1017.2 0.3 60
2019-11-08 16:00:00 21.4 41 Nordeste 56 Nordeste 0 1016.8 -0.7 58
2019-11-08 15:00:00 22 43 Nordeste 58 Nordeste 0 1016.6 -1.2 58
2019-11-08 14:00:00 22.6 40 Nordeste 57 Norte 0 1016.9 -1.1 55
2019-11-08 13:00:00 22 44 Nordeste -- -- 0 1017.5 -0.3 56
2019-11-08 12:00:00 21.3 -- -- -- -- 0 1017.8 0.7 60
2019-11-08 11:00:00 22.4 37 Nordeste -- -- 0 1018 1.3 55
2019-11-08 10:00:00 21.8 38 Nordeste 51 Nordeste 0 1017.8 2 66
2019-11-08 09:00:00 21.8 40 Nordeste 50 Nordeste 0 1017.1 1.6 64
2019-11-08 08:00:00 20.5 31 Nordeste 54 Nordeste 0 1016.7 1.2 78
2019-11-08 07:00:00 20.2 37 Nordeste 48 Nordeste 0 1015.8 0.3 81
2019-11-08 06:00:00 20.4 34 Nordeste 46 Nordeste 0 1015.5 -0.1 81
2019-11-08 05:00:00 20.2 24 Nordeste 40 Nordeste 0 1015.5 0.2 82
2019-11-08 04:00:00 20.2 28 Nordeste 42 Nordeste 0 1015.5 0 79
2019-11-08 03:00:00 20.2 26 Nordeste 42 Nordeste 0 1015.6 -0.1 79
2019-11-08 02:00:00 20.1 31 Nordeste 42 Nordeste 0 1015.3 -0.6 78
2019-11-08 01:00:00 20.1 31 Nordeste 43 Nordeste 0 1015.5 -0.1 77
2019-11-08 00:00:00 20.5 30 Nordeste 45 Nordeste 0 1015.7 0.6 74
2019-11-07 23:00:00 20.5 33 Nordeste 44 Nordeste 0 1015.9 1.3 73
2019-11-07 22:00:00 20.5 33 Nordeste 47 Nordeste 0 1015.6 1.3 73
2019-11-07 21:00:00 20.6 36 Nordeste 50 Nordeste 0 1015.1 1.4 73
2019-11-07 20:00:00 20.4 31 Nordeste 47 Nordeste 0 1014.6 1.1 77
2019-11-07 19:00:00 20.2 30 Nordeste 45 Nordeste 0 1014.3 0.9 77
2019-11-07 18:00:00 20.3 32 Nordeste 44 Nordeste 0 1013.7 0.4 74
2019-11-07 17:00:00 20.9 35 Nordeste 46 Nordeste 0 1013.5 -0.5 72
2019-11-07 16:00:00 21.9 35 Nordeste 49 Nordeste 0 1013.4 -1.1 70
2019-11-07 15:00:00 22.9 39 Nordeste 51 Nordeste 0 1013.3 -2.1 66
2019-11-07 14:00:00 22.9 36 Nordeste 51 Nordeste 0 1014 -1.9 66
2019-11-07 13:00:00 22.8 37 Nordeste 49 Nordeste 0 1014.5 -1.3 65
2019-11-07 12:00:00 22.6 37 Nordeste 50 Nordeste 0 1015.4 0.1 65
2019-11-07 11:00:00 22.1 37 Nordeste 48 Nordeste 0 1015.9 1.1 64
2019-11-07 10:00:00 22.4 35 Nordeste 47 Nordeste 0 1015.8 1.2 62
2019-11-07 09:00:00 20.7 33 Nordeste 46 Nordeste 0 1015.3 1.3 67
2019-11-07 08:00:00 20 29 Nordeste 42 Nordeste 0 1014.8 0.9 70
2019-11-07 07:00:00 19.7 30 Nordeste 39 Nordeste 0 1014.6 0.9 73
2019-11-07 06:00:00 19.7 26 Nordeste 42 Nordeste 0 1014 0.3 73
2019-11-07 05:00:00 19.5 27 Nordeste 41 Nordeste 0 1013.9 -0.4 69
2019-11-07 04:00:00 19.5 29 Nordeste 43 Nordeste 0 1013.7 -1 70
2019-11-07 03:00:00 19.5 29 Nordeste 42 Nordeste 0 1013.7 -1.4 68
2019-11-07 02:00:00 19.5 28 Nordeste 41 Nordeste 0 1014.3 -1.1 69
2019-11-07 01:00:00 19.8 29 Nordeste 46 Nordeste 0 1014.7 -1.1 73
2019-11-07 00:00:00 20.1 29 Nordeste 47 Norte 0 1015.1 -0.7 71
2019-11-06 23:00:00 20.2 33 Norte 44 Norte 0 1015.4 -0.4 70
2019-11-06 22:00:00 20.1 34 Nordeste 48 Norte 0 1015.8 0.4 64
2019-11-06 21:00:00 20.3 33 Norte 47 Norte 0 1015.8 0.6 67
2019-11-06 20:00:00 20.5 36 Norte 48 Norte 0 1015.8 0.5 64
2019-11-06 19:00:00 20.4 36 Norte 48 Norte 0 1015.4 -0.1 65
2019-11-06 18:00:00 20.4 37 Norte 54 Norte 0 1015.2 -0.5 56
2019-11-06 17:00:00 21.6 37 Norte 52 Norte 0 1015.3 -0.8 61
2019-11-06 16:00:00 21.3 39 Norte 55 Norte 0 1015.5 -1.2 64
2019-11-06 15:00:00 23.1 38 Norte 52 Norte 0 1015.7 -1.7 56
2019-11-06 14:00:00 22.6 37 Norte 53 Nordeste 0 1016.1 -1.7 57
2019-11-06 13:00:00 22.7 38 Norte 51 Norte 0 1016.7 -1.3 58
2019-11-06 12:00:00 23.4 38 Norte -- -- 0 1017.4 -0.3 51
2019-11-06 11:00:00 23 39 Norte 53 Nordeste 0 1017.8 0.3 52
2019-11-06 10:00:00 22.3 37 Norte -- -- 0 1018 0.8 55
2019-11-06 09:00:00 21.2 -- -- -- -- 0 1017.7 0.6 60
2019-11-06 08:00:00 20.2 32 Norte 45 Norte 0 1017.5 0.2 65
2019-11-06 07:00:00 19.8 32 Norte 45 Norte 0 1017.2 0 64
2019-11-06 06:00:00 19.5 29 Norte 40 Norte 0 1017.1 -0.5 65
2019-11-06 05:00:00 19.6 29 Norte 43 Nordeste 0 1017.3 -0.7 65
2019-11-06 04:00:00 19.6 28 Norte 44 Norte 0 1017.2 -1.2 65
2019-11-06 03:00:00 19.6 31 Norte 46 Norte 0 1017.6 -1.2 66
2019-11-06 02:00:00 19.9 27 Norte 45 Norte 0 1018 -1.2 65
2019-11-06 01:00:00 19.9 28 Norte 45 Nordeste 0 1018.4 -0.8 63
2019-11-06 00:00:00 20.2 35 Norte 47 Norte 0 1018.8 -0.4 53